createdAt,value
2022-11-19T00:00:34.835Z,35.34
2022-11-19T00:03:01.216Z,35.37
2022-11-19T00:05:27.575Z,35.36
2022-11-19T00:07:55.199Z,35.39
2022-11-19T00:10:20.315Z,35.45
2022-11-19T00:12:46.704Z,35.39
2022-11-19T00:15:13.047Z,35.48
2022-11-19T00:17:39.438Z,35.50
2022-11-19T00:20:05.787Z,35.44
2022-11-19T00:22:32.232Z,35.49
2022-11-19T00:24:58.571Z,35.55
2022-11-19T00:27:24.989Z,35.55
2022-11-19T00:29:51.324Z,35.61
2022-11-19T00:32:17.736Z,35.62
2022-11-19T00:34:44.096Z,35.57
2022-11-19T00:37:10.475Z,35.59
2022-11-19T00:39:36.822Z,35.68
2022-11-19T00:42:03.217Z,35.64
2022-11-19T00:44:32.673Z,35.75
2022-11-19T00:46:55.776Z,35.80
2022-11-19T00:49:22.266Z,35.71
2022-11-19T00:51:48.500Z,35.81
2022-11-19T00:54:14.851Z,35.84
2022-11-19T00:56:41.230Z,35.77
2022-11-19T00:59:07.570Z,35.76
2022-11-19T01:01:34.032Z,35.84
2022-11-19T01:04:00.303Z,35.81
2022-11-19T01:06:26.687Z,35.77
2022-11-19T01:08:53.038Z,35.80
2022-11-19T01:11:19.416Z,35.85
2022-11-19T01:13:45.794Z,35.84
2022-11-19T01:16:12.172Z,35.97
2022-11-19T01:18:38.515Z,35.87
2022-11-19T01:21:04.898Z,35.85
2022-11-19T01:23:31.244Z,35.89
2022-11-19T01:25:57.643Z,35.92
2022-11-19T01:28:24.019Z,35.93
2022-11-19T01:30:50.412Z,35.93
2022-11-19T01:33:16.784Z,35.95
2022-11-19T01:35:43.166Z,35.94
2022-11-19T01:38:09.514Z,35.95
2022-11-19T01:40:35.907Z,35.98
2022-11-19T01:43:02.245Z,35.99
2022-11-19T01:45:28.638Z,35.97
2022-11-19T01:47:54.982Z,36.00
2022-11-19T01:50:21.362Z,35.97
2022-11-19T01:52:47.713Z,36.00
2022-11-19T01:55:14.090Z,36.03
2022-11-19T01:57:40.432Z,36.02
2022-11-19T02:00:09.945Z,36.01
2022-11-19T02:02:36.337Z,36.01
2022-11-19T02:05:02.721Z,36.10
2022-11-19T02:07:29.153Z,36.04
2022-11-19T02:09:55.454Z,36.11
2022-11-19T02:12:21.800Z,36.06
2022-11-19T02:14:51.923Z,36.11
2022-11-19T02:17:14.555Z,36.10
2022-11-19T02:19:40.971Z,36.12
2022-11-19T02:22:07.314Z,36.14
2022-11-19T02:24:33.702Z,36.10
2022-11-19T02:27:00.058Z,36.12
2022-11-19T02:29:26.441Z,36.10
2022-11-19T02:31:52.795Z,36.14
2022-11-19T02:34:19.172Z,36.14
2022-11-19T02:36:45.516Z,36.20
2022-11-19T02:39:11.914Z,36.20
2022-11-19T02:41:38.260Z,36.22
2022-11-19T02:44:04.655Z,36.22
2022-11-19T02:46:30.993Z,36.21
2022-11-19T02:48:57.388Z,36.22
2022-11-19T02:51:23.728Z,36.17
2022-11-19T02:53:50.119Z,36.16
2022-11-19T02:56:16.468Z,36.16
2022-11-19T02:58:42.856Z,36.23
2022-11-19T03:01:09.225Z,36.21
2022-11-19T03:03:35.581Z,36.21
2022-11-19T03:06:01.937Z,36.26
2022-11-19T03:08:28.323Z,36.28
2022-11-19T03:10:54.664Z,36.25
2022-11-19T03:13:21.057Z,36.35
2022-11-19T03:15:47.496Z,36.31
2022-11-19T03:18:13.874Z,36.26
2022-11-19T03:20:40.225Z,36.27
2022-11-19T03:23:06.603Z,36.30
2022-11-19T03:25:32.947Z,36.25
2022-11-19T03:27:59.339Z,36.36
2022-11-19T03:30:25.707Z,36.39
2022-11-19T03:32:52.095Z,36.42
2022-11-19T03:35:18.433Z,36.38
2022-11-19T03:37:44.829Z,36.38
2022-11-19T03:40:11.178Z,36.30
2022-11-19T03:42:37.563Z,36.35
2022-11-19T03:45:03.919Z,36.32
2022-11-19T03:47:30.428Z,36.29
2022-11-19T03:49:56.767Z,36.35
2022-11-19T03:52:23.159Z,36.42
2022-11-19T03:54:49.506Z,36.35
2022-11-19T03:57:15.890Z,36.37
2022-11-19T03:59:42.236Z,36.37
2022-11-19T04:02:08.700Z,36.40
2022-11-19T04:04:34.965Z,36.42
2022-11-19T04:07:01.397Z,36.41
2022-11-19T04:09:27.699Z,36.42
2022-11-19T04:14:19.404Z,36.39
2022-11-19T04:16:47.475Z,36.36
2022-11-19T04:19:12.157Z,36.39
2022-11-19T04:21:38.540Z,36.48
2022-11-19T04:24:04.882Z,36.46
2022-11-19T04:26:31.273Z,36.42
2022-11-19T04:28:57.609Z,36.46
2022-11-19T04:31:24.049Z,36.50
2022-11-19T04:33:50.390Z,36.42
2022-11-19T04:36:16.772Z,36.43
2022-11-19T04:38:43.123Z,36.46
2022-11-19T04:41:09.499Z,36.45
2022-11-19T04:43:35.842Z,36.45
2022-11-19T04:46:02.224Z,36.47
2022-11-19T04:48:28.563Z,36.44
2022-11-19T04:50:54.955Z,36.49
2022-11-19T04:53:21.329Z,36.51
2022-11-19T04:55:47.719Z,36.55
2022-11-19T04:58:14.066Z,36.48
2022-11-19T05:00:40.451Z,36.51
2022-11-19T05:03:06.796Z,36.60
2022-11-19T05:05:33.183Z,36.53
2022-11-19T05:07:59.521Z,36.50
2022-11-19T05:10:25.920Z,36.51
2022-11-19T05:12:52.300Z,36.50
2022-11-19T05:15:18.682Z,36.48
2022-11-19T05:17:45.028Z,36.47
2022-11-19T05:20:11.416Z,36.49
2022-11-19T05:22:37.767Z,36.50
2022-11-19T05:25:04.170Z,36.48
2022-11-19T05:27:30.492Z,36.51
2022-11-19T05:29:56.927Z,36.52
2022-11-19T05:32:23.256Z,36.55
2022-11-19T05:34:51.101Z,36.56
2022-11-19T05:37:17.200Z,36.56
2022-11-19T05:39:42.370Z,36.58
2022-11-19T05:42:08.713Z,36.60
2022-11-19T05:44:35.110Z,36.63
2022-11-19T05:47:01.444Z,36.62
2022-11-19T05:49:27.830Z,36.59
2022-11-19T05:51:54.175Z,36.56
2022-11-19T05:54:20.604Z,36.58
2022-11-19T05:56:46.918Z,36.60
2022-11-19T05:59:13.343Z,36.61
2022-11-19T06:01:39.690Z,36.61
2022-11-19T06:04:06.073Z,36.60
2022-11-19T06:06:32.420Z,36.50
2022-11-19T06:08:58.804Z,36.46
2022-11-19T06:11:25.143Z,36.42
2022-11-19T06:13:51.532Z,36.39
2022-11-19T06:16:17.902Z,36.42
2022-11-19T06:18:44.275Z,36.45
2022-11-19T06:21:12.255Z,36.39
2022-11-19T06:23:37.020Z,36.39
2022-11-19T06:26:03.357Z,36.36
2022-11-19T06:28:29.743Z,36.28
2022-11-19T06:30:56.084Z,36.31
2022-11-19T06:33:22.469Z,36.30
2022-11-19T06:35:48.815Z,36.29
2022-11-19T06:38:15.212Z,36.32
2022-11-19T06:40:41.559Z,36.32
2022-11-19T06:43:07.942Z,36.32
2022-11-19T06:45:34.299Z,36.38
2022-11-19T06:48:00.686Z,36.42
2022-11-19T06:50:27.029Z,36.36
2022-11-19T06:52:53.415Z,36.39
2022-11-19T06:55:19.758Z,36.41
2022-11-19T06:57:46.146Z,36.41
2022-11-19T07:00:12.521Z,36.45
2022-11-19T07:02:38.906Z,36.46
2022-11-19T07:05:05.247Z,36.42
2022-11-19T07:07:31.685Z,36.43
2022-11-19T07:09:57.992Z,36.51
2022-11-19T07:12:24.377Z,36.42
2022-11-19T07:14:50.748Z,36.49
2022-11-19T07:17:17.132Z,36.47
2022-11-19T07:19:43.472Z,36.51
2022-11-19T07:22:09.865Z,36.48
2022-11-19T07:24:36.205Z,36.47
2022-11-19T07:27:02.604Z,36.48
2022-11-19T07:29:28.947Z,36.48
2022-11-19T07:31:55.331Z,36.47
2022-11-19T07:34:21.666Z,36.46
2022-11-19T07:36:48.188Z,36.42
2022-11-19T07:39:14.531Z,36.43
2022-11-19T07:41:40.931Z,36.47
2022-11-19T07:44:07.271Z,36.45
2022-11-19T07:46:33.656Z,36.54
2022-11-19T07:48:59.995Z,36.67
2022-11-19T07:51:26.379Z,36.73
2022-11-19T07:53:52.730Z,36.69
2022-11-19T07:56:19.122Z,36.67
2022-11-19T07:58:45.557Z,36.66
2022-11-19T08:01:11.950Z,36.81
2022-11-19T08:03:38.294Z,36.73
2022-11-19T08:06:04.642Z,36.66
2022-11-19T08:08:31.032Z,36.70
2022-11-19T08:10:57.380Z,36.73
2022-11-19T08:13:23.765Z,36.74
2022-11-19T08:15:50.108Z,36.74
2022-11-19T08:18:16.487Z,36.76
2022-11-19T08:20:42.831Z,36.81
2022-11-19T08:23:09.326Z,36.79
2022-11-19T08:25:35.569Z,36.81
2022-11-19T08:28:01.955Z,36.80
2022-11-19T08:30:28.330Z,36.84
2022-11-19T08:32:54.759Z,36.92
2022-11-19T08:35:21.134Z,36.93
2022-11-19T08:37:47.525Z,36.87
2022-11-19T08:40:13.865Z,36.82
2022-11-19T08:42:40.250Z,36.83
2022-11-19T08:45:06.598Z,36.90
2022-11-19T08:47:32.982Z,36.94
2022-11-19T08:49:59.313Z,37.01
2022-11-19T08:52:25.703Z,36.88
2022-11-19T08:54:52.053Z,36.95
2022-11-19T08:57:18.481Z,36.88
2022-11-19T08:59:44.827Z,36.83
2022-11-19T09:02:11.260Z,36.99
2022-11-19T09:04:37.610Z,36.94
2022-11-19T09:07:04.052Z,36.87
2022-11-19T09:09:30.344Z,36.93
2022-11-19T09:11:56.731Z,37.00
2022-11-19T09:14:23.075Z,37.06
2022-11-19T09:16:49.459Z,36.99
2022-11-19T09:19:15.796Z,37.05
2022-11-19T09:21:42.183Z,37.00
2022-11-19T09:24:08.530Z,37.07
2022-11-19T09:26:34.946Z,36.92
2022-11-19T09:29:01.289Z,37.02
2022-11-19T09:31:27.672Z,37.09
2022-11-19T09:33:54.007Z,36.94
2022-11-19T09:36:20.412Z,36.92
2022-11-19T09:38:46.738Z,36.95
2022-11-19T09:41:14.551Z,36.93
2022-11-19T09:43:39.499Z,36.97
2022-11-19T09:46:05.880Z,36.93
2022-11-19T09:48:32.220Z,36.90
2022-11-19T09:50:58.603Z,36.90
2022-11-19T09:53:24.951Z,36.94
2022-11-19T09:55:51.340Z,36.92
2022-11-19T09:58:17.691Z,36.96
2022-11-19T10:00:44.075Z,36.97
2022-11-19T10:03:10.467Z,37.06
2022-11-19T10:05:36.810Z,36.94
2022-11-19T10:08:03.149Z,36.90
2022-11-19T10:10:29.534Z,37.08
2022-11-19T10:12:55.871Z,37.09
2022-11-19T10:15:22.282Z,37.19
2022-11-19T10:20:33.905Z,36.93
2022-11-19T10:23:00.249Z,36.97
2022-11-19T10:25:26.633Z,37.03
2022-11-19T10:27:52.972Z,37.19
2022-11-19T10:30:19.430Z,37.15
2022-11-19T10:32:45.759Z,37.24
2022-11-19T10:35:12.149Z,37.06
2022-11-19T10:37:38.493Z,37.16
2022-11-19T10:40:04.881Z,37.16
2022-11-19T10:42:31.215Z,37.20
2022-11-19T10:44:57.611Z,37.20
2022-11-19T10:47:23.958Z,37.28
2022-11-19T10:49:50.384Z,37.38
2022-11-19T10:52:16.732Z,37.26
2022-11-19T10:54:43.110Z,37.17
2022-11-19T10:57:09.450Z,37.30
2022-11-19T10:59:35.854Z,37.24
2022-11-19T11:02:02.186Z,37.33
2022-11-19T11:04:28.573Z,37.35
2022-11-19T11:06:55.139Z,37.37
2022-11-19T11:09:21.693Z,37.28
2022-11-19T11:11:47.702Z,37.35
2022-11-19T11:14:14.133Z,37.32
2022-11-19T11:16:40.571Z,37.30
2022-11-19T11:19:08.601Z,37.38
2022-11-19T11:21:33.308Z,37.21
2022-11-19T11:23:59.696Z,37.17
2022-11-19T11:26:26.037Z,37.13
2022-11-19T11:28:52.433Z,37.23
2022-11-19T11:31:18.778Z,37.32
2022-11-19T11:33:45.162Z,37.23
2022-11-19T11:36:11.507Z,37.19
2022-11-19T11:38:37.894Z,37.27
2022-11-19T11:43:30.653Z,37.04
2022-11-19T11:45:56.992Z,37.06
2022-11-19T11:48:23.384Z,37.12
2022-11-19T11:50:49.720Z,37.13
2022-11-19T11:53:16.114Z,36.72
2022-11-19T11:55:42.459Z,36.64
2022-11-19T11:58:08.840Z,36.92
2022-11-19T12:00:35.224Z,36.81
2022-11-19T12:03:01.603Z,36.67
2022-11-19T12:05:27.945Z,36.53
2022-11-19T12:07:54.334Z,36.79
2022-11-19T12:10:20.674Z,36.83
2022-11-19T12:12:47.064Z,36.84
2022-11-19T12:15:14.415Z,36.84
2022-11-19T12:17:39.799Z,36.77
2022-11-19T12:20:06.169Z,36.69
2022-11-19T12:22:32.556Z,36.61
2022-11-19T12:24:58.894Z,36.68
2022-11-19T12:27:25.285Z,36.74
2022-11-19T12:29:51.671Z,36.59
2022-11-19T12:32:18.029Z,36.71
2022-11-19T12:34:44.376Z,36.75
2022-11-19T12:37:10.787Z,36.79
2022-11-19T12:39:37.133Z,36.87
2022-11-19T12:42:03.524Z,36.79
2022-11-19T12:44:29.881Z,36.87
2022-11-19T12:46:56.270Z,36.80
2022-11-19T12:49:22.851Z,36.98
2022-11-19T12:51:49.002Z,37.00
2022-11-19T12:54:17.571Z,37.08
2022-11-19T12:56:41.740Z,37.09
2022-11-19T12:59:08.087Z,37.19
2022-11-19T13:01:34.530Z,37.29
2022-11-19T13:04:00.813Z,37.31
2022-11-19T13:06:27.209Z,37.33
2022-11-19T13:08:53.550Z,37.42
2022-11-19T13:11:20.911Z,37.44
2022-11-19T13:13:46.282Z,37.54
2022-11-19T13:16:12.665Z,37.56
2022-11-19T13:18:38.999Z,37.64
2022-11-19T13:21:05.393Z,37.70
2022-11-19T13:23:31.739Z,37.79
2022-11-19T13:25:58.124Z,37.77
2022-11-19T13:28:24.475Z,37.82
2022-11-19T13:30:50.850Z,37.80
2022-11-19T13:33:17.254Z,37.94
2022-11-19T13:35:43.644Z,38.06
2022-11-19T13:38:09.996Z,38.06
2022-11-19T13:40:36.376Z,38.12
2022-11-19T13:43:30.382Z,38.27
2022-11-19T13:45:29.123Z,38.36
2022-11-19T13:47:58.095Z,38.41
2022-11-19T13:50:21.863Z,38.44
2022-11-19T13:52:48.234Z,38.48
2022-11-19T13:55:14.622Z,38.61
2022-11-19T13:57:41.064Z,38.63
2022-11-19T14:00:07.501Z,38.66
2022-11-19T14:02:33.773Z,38.73
2022-11-19T14:05:00.171Z,38.78
2022-11-19T14:07:30.857Z,38.88
2022-11-19T14:09:52.892Z,38.87
2022-11-19T14:12:19.232Z,38.83
2022-11-19T14:14:45.619Z,38.83
2022-11-19T14:17:11.979Z,38.74
2022-11-19T14:19:38.353Z,38.85
2022-11-19T14:22:04.691Z,38.83
2022-11-19T14:24:32.033Z,38.79
2022-11-19T14:26:57.445Z,38.73
2022-11-19T14:29:23.821Z,38.63
2022-11-19T14:31:50.168Z,38.57
2022-11-19T14:34:16.559Z,38.54
2022-11-19T14:36:42.904Z,38.45
2022-11-19T14:39:09.304Z,38.43
2022-11-19T14:41:35.635Z,38.43
2022-11-19T14:44:02.031Z,38.38
2022-11-19T14:46:28.386Z,38.28
2022-11-19T14:48:54.824Z,38.20
2022-11-19T14:51:21.108Z,38.24
2022-11-19T14:53:47.496Z,38.07
2022-11-19T14:56:13.869Z,38.09
2022-11-19T14:58:40.266Z,38.00
2022-11-19T15:01:06.625Z,37.93
2022-11-19T15:03:33.188Z,38.04
2022-11-19T15:05:59.498Z,38.03
2022-11-19T15:08:25.886Z,37.98
2022-11-19T15:10:52.229Z,37.74
2022-11-19T15:13:18.628Z,37.76
2022-11-19T15:15:44.983Z,37.75
2022-11-19T15:18:11.352Z,37.76
2022-11-19T15:20:37.701Z,37.81
2022-11-19T15:23:04.119Z,37.82
2022-11-19T15:25:30.463Z,37.79
2022-11-19T15:27:56.852Z,37.80
2022-11-19T15:30:23.191Z,37.78
2022-11-19T15:32:52.053Z,37.81
2022-11-19T15:35:18.473Z,37.79
2022-11-19T15:37:44.796Z,37.82
2022-11-19T15:40:11.146Z,37.78
2022-11-19T15:42:37.541Z,37.81
2022-11-19T15:45:03.885Z,37.78
2022-11-19T15:47:30.272Z,37.82
2022-11-19T15:49:56.618Z,37.82
2022-11-19T15:52:23.006Z,37.85
2022-11-19T15:54:49.349Z,37.83
2022-11-19T15:57:15.748Z,37.83
2022-11-19T15:59:42.096Z,37.86
2022-11-19T16:02:08.478Z,37.87
2022-11-19T16:04:34.816Z,37.87
2022-11-19T16:07:01.243Z,37.89
2022-11-19T16:09:27.559Z,37.91
2022-11-19T16:11:53.946Z,37.86
2022-11-19T16:14:20.291Z,37.90
2022-11-19T16:16:46.670Z,37.89
2022-11-19T16:19:13.015Z,37.89
2022-11-19T16:21:39.441Z,37.94
2022-11-19T16:24:05.785Z,37.96
2022-11-19T16:26:32.184Z,37.94
2022-11-19T16:28:58.520Z,37.99
2022-11-19T16:31:24.904Z,37.93
2022-11-19T16:33:51.245Z,37.93
2022-11-19T16:36:17.629Z,37.97
2022-11-19T16:38:43.966Z,37.95
2022-11-19T16:41:10.360Z,37.90
2022-11-19T16:43:36.711Z,37.95
2022-11-19T16:46:03.094Z,37.91
2022-11-19T16:48:29.436Z,37.99
2022-11-19T16:50:55.818Z,37.98
2022-11-19T16:53:22.159Z,37.99
2022-11-19T16:55:48.549Z,37.99
2022-11-19T16:58:14.896Z,38.01
2022-11-19T17:00:41.281Z,38.04
2022-11-19T17:03:07.660Z,37.99
2022-11-19T17:05:34.107Z,37.96
2022-11-19T17:08:00.454Z,38.01
2022-11-19T17:10:26.837Z,37.96
2022-11-19T17:12:53.178Z,37.93
2022-11-19T17:15:19.571Z,38.02
2022-11-19T17:17:45.921Z,37.97
2022-11-19T17:20:12.305Z,38.07
2022-11-19T17:22:38.641Z,38.07
2022-11-19T17:25:05.034Z,38.11
2022-11-19T17:27:31.368Z,38.05
2022-11-19T17:29:57.758Z,38.02
2022-11-19T17:32:24.105Z,38.08
2022-11-19T17:34:50.485Z,38.06
2022-11-19T17:37:16.841Z,38.00
2022-11-19T17:39:43.235Z,38.06
2022-11-19T17:42:09.581Z,38.03
2022-11-19T17:44:35.969Z,38.06
2022-11-19T17:47:02.333Z,38.03
2022-11-19T17:49:28.742Z,38.03
2022-11-19T17:51:55.077Z,38.09
2022-11-19T17:54:21.715Z,38.06
2022-11-19T17:56:47.826Z,38.07
2022-11-19T17:59:14.213Z,38.10
2022-11-19T18:01:40.641Z,38.06
2022-11-19T18:04:06.971Z,38.13
2022-11-19T18:06:33.346Z,38.11
2022-11-19T18:08:59.730Z,38.05
2022-11-19T18:11:26.078Z,38.10
2022-11-19T18:13:53.659Z,38.12
2022-11-19T18:16:18.801Z,38.12
2022-11-19T18:18:45.195Z,38.15
2022-11-19T18:21:11.535Z,38.12
2022-11-19T18:23:37.922Z,38.18
2022-11-19T18:26:04.271Z,38.18
2022-11-19T18:28:30.653Z,38.19
2022-11-19T18:30:57.036Z,38.21
2022-11-19T18:33:23.383Z,38.16
2022-11-19T18:35:49.801Z,38.18
2022-11-19T18:38:16.142Z,38.12
2022-11-19T18:40:42.551Z,38.16
2022-11-19T18:43:08.879Z,38.12
2022-11-19T18:45:35.284Z,38.13
2022-11-19T18:48:01.615Z,38.16
2022-11-19T18:50:30.075Z,38.12
2022-11-19T18:52:54.360Z,38.17
2022-11-19T18:55:20.741Z,38.14
2022-11-19T18:57:47.082Z,38.16
2022-11-19T19:00:13.480Z,38.22
2022-11-19T19:02:39.820Z,38.15
2022-11-19T19:05:07.883Z,38.30
2022-11-19T19:07:32.597Z,38.12
2022-11-19T19:09:58.933Z,38.19
2022-11-19T19:12:25.298Z,38.17
2022-11-19T19:14:51.780Z,38.19
2022-11-19T19:17:18.052Z,38.18
2022-11-19T19:19:44.440Z,38.17
2022-11-19T19:22:13.233Z,38.19
2022-11-19T19:24:41.103Z,38.12
2022-11-19T19:27:06.067Z,38.31
2022-11-19T19:29:32.453Z,38.28
2022-11-19T19:31:58.798Z,38.21
2022-11-19T19:34:25.192Z,38.21
2022-11-19T19:36:53.418Z,38.17
2022-11-19T19:39:17.969Z,38.18
2022-11-19T19:41:44.270Z,38.14
2022-11-19T19:44:10.690Z,38.22
2022-11-19T19:46:37.034Z,38.38
2022-11-19T19:49:03.439Z,38.35
2022-11-19T19:51:29.783Z,38.35
2022-11-19T19:53:56.174Z,38.40
2022-11-19T19:56:22.516Z,38.51
2022-11-19T19:58:48.909Z,38.41
2022-11-19T20:01:15.247Z,38.38
2022-11-19T20:03:41.633Z,38.50
2022-11-19T20:06:07.973Z,38.40
2022-11-19T20:08:34.362Z,38.39
2022-11-19T20:11:00.705Z,38.43
2022-11-19T20:13:27.099Z,38.41
2022-11-19T20:15:53.514Z,38.36
2022-11-19T20:18:19.884Z,38.40
2022-11-19T20:20:46.232Z,38.41
2022-11-19T20:23:12.629Z,38.32
2022-11-19T20:25:38.976Z,38.53
2022-11-19T20:28:05.361Z,38.42
2022-11-19T20:30:31.704Z,38.57
2022-11-19T20:32:58.098Z,38.54
2022-11-19T20:35:24.456Z,38.32
2022-11-19T20:37:50.862Z,38.31
2022-11-19T20:40:18.165Z,38.33
2022-11-19T20:42:43.596Z,38.35
2022-11-19T20:45:10.904Z,38.50
2022-11-19T20:47:36.331Z,38.55
2022-11-19T20:50:02.695Z,38.51
2022-11-19T20:52:29.087Z,38.48
2022-11-19T20:54:55.426Z,38.38
2022-11-19T20:57:21.817Z,38.55
2022-11-19T20:59:48.170Z,38.57
2022-11-19T21:02:14.647Z,38.53
2022-11-19T21:04:40.941Z,38.62
2022-11-19T21:07:07.400Z,38.54
2022-11-19T21:09:33.719Z,38.56
2022-11-19T21:12:00.097Z,38.57
2022-11-19T21:14:26.438Z,38.45
2022-11-19T21:16:52.832Z,38.59
2022-11-19T21:19:19.755Z,38.51
2022-11-19T21:21:45.708Z,38.56
2022-11-19T21:24:11.932Z,38.38
2022-11-19T21:26:38.310Z,38.51
2022-11-19T21:29:04.658Z,38.61
2022-11-19T21:31:36.459Z,38.77
2022-11-19T21:33:57.422Z,38.62
2022-11-19T21:36:23.803Z,38.72
2022-11-19T21:38:50.143Z,38.64
2022-11-19T21:41:16.540Z,38.45
2022-11-19T21:43:42.882Z,38.49
2022-11-19T21:46:09.269Z,38.73
2022-11-19T21:48:35.611Z,38.63
2022-11-19T21:51:01.996Z,38.62
2022-11-19T21:53:28.344Z,38.79
2022-11-19T21:55:54.739Z,38.83
2022-11-19T21:58:21.085Z,38.67
2022-11-19T22:00:47.506Z,38.70
2022-11-19T22:03:13.817Z,38.64
2022-11-19T22:05:40.207Z,38.73
2022-11-19T22:08:06.556Z,38.76
2022-11-19T22:10:32.942Z,38.64
2022-11-19T22:12:59.287Z,38.70
2022-11-19T22:15:25.674Z,38.80
2022-11-19T22:17:52.014Z,38.57
2022-11-19T22:20:18.406Z,38.71
2022-11-19T22:22:44.756Z,38.80
2022-11-19T22:25:11.136Z,38.78
2022-11-19T22:27:37.476Z,38.84
2022-11-19T22:30:06.145Z,38.63
2022-11-19T22:32:30.207Z,38.59
2022-11-19T22:34:56.601Z,38.77
2022-11-19T22:37:22.947Z,38.84
2022-11-19T22:39:49.334Z,38.86
2022-11-19T22:42:15.677Z,38.78
2022-11-19T22:44:42.198Z,38.86
2022-11-19T22:47:08.529Z,38.64
2022-11-19T22:49:34.918Z,38.48
2022-11-19T22:52:01.301Z,38.54
2022-11-19T22:54:27.683Z,38.70
2022-11-19T22:56:54.058Z,38.66
2022-11-19T22:59:20.731Z,38.90
2022-11-19T23:01:46.786Z,38.86
2022-11-19T23:04:13.185Z,38.78
2022-11-19T23:06:39.536Z,38.77
2022-11-19T23:09:05.909Z,38.77
2022-11-19T23:11:32.326Z,38.60
2022-11-19T23:13:58.715Z,38.60
2022-11-19T23:16:25.109Z,38.58
2022-11-19T23:18:51.482Z,38.57
2022-11-19T23:21:17.825Z,38.55
2022-11-19T23:23:44.209Z,38.69
2022-11-19T23:26:10.546Z,38.77
2022-11-19T23:28:36.940Z,38.77
2022-11-19T23:31:03.286Z,38.72
2022-11-19T23:33:29.706Z,38.61
2022-11-19T23:35:56.048Z,38.55
2022-11-19T23:38:22.431Z,38.57
2022-11-19T23:40:48.776Z,38.55
2022-11-19T23:43:15.157Z,38.67
2022-11-19T23:45:42.330Z,38.73
2022-11-19T23:48:08.729Z,38.83
2022-11-19T23:50:35.092Z,38.84
2022-11-19T23:53:01.468Z,38.86
2022-11-19T23:55:27.805Z,38.83
2022-11-19T23:57:54.198Z,38.74
